Blossvale, New York
Current Conditions -  °F | °C
As of 11:53 PM on Sunday 21 Dec 2014 (Local Time) from KRME Reporting Station
Overcast Overcast  
Wind Chill: 25°   Ceiling: 2700
Heat Index: 30°   Visibility: 10mi
Dew Point: 23°   Wind: 5mph
Humidity: 75%   Direction: 90°E
Pressure: 30.35"   Gusts: NA
Location:  43.28°N, 75.64°W
Report Text: KRME 220453Z AUTO 09004KT 10SM OVC027 M01/M05 A3035 RMK AO2 SLP283 T10111050 400061056
Loading
Personal Weather Stations






























Interactive Weather Map New forecast layout! Learn more

10-Day Weather Forecast

Advertisements
Track Severe Weather on mobile